Hershey, Pennsylvania
Current Conditions -  °F | °C
As of 1:56 PM on Tuesday 27 Jan 2015 (Local Time) from KMDT Reporting Station
Broken Clouds Broken Clouds  
Wind Chill: 19°   Ceiling: 16000
Heat Index: 30°   Visibility: 10mi
Dew Point: 13°   Wind: 15mph
Humidity: 49%   Direction: 320°NW
Pressure: 29.79"   Gusts: NA
Location:  40.29°N, 76.65°W
Report Text: KMDT 271856Z 32013KT 10SM SCT070 BKN160 M01/M11 A2979 RMK AO2 SLP093 T10111106
Loading
Personal Weather Stations






























Interactive Weather Map New forecast layout! Learn more

10-Day Weather Forecast

Advertisements
Track Severe Weather on mobile